Time;durP1;ratioP1;P1;durP2;ratioP2;P2;SDS_P1;SDS_P2;PMS_P1;PMS_P2;Temp;Humidity;BMP_temperature;BMP_pressure;BME280_temperature;BME280_humidity;BME280_pressure;Samples;Min_cycle;Max_cycle;Signal;HPM_P1;HPM_P2
2023/12/10 00:01:52;;;;;;;6.63;1.92;;;;;;;8.40;62.69;98453.41;10521197;28;20044;-64
2023/12/10 00:06:55;;;;;;;6.43;1.77;;;;;;;8.57;63.31;98458.19;10520353;28;20044;-64
2023/12/10 00:11:57;;;;;;;7.40;2.15;;;;;;;8.44;63.46;98454.00;10520832;28;20047;-66
2023/12/10 00:16:59;;;;;;;8.10;2.00;;;;;;;8.22;63.21;98466.94;10520294;28;20127;-64
2023/12/10 00:22:02;;;;;;;13.10;2.55;;;;;;;8.18;62.89;98473.31;10502210;28;20116;-64
2023/12/10 00:27:04;;;;;;;7.32;2.70;;;;;;;8.16;63.10;98491.66;10519251;28;20513;-64
2023/12/10 00:32:06;;;;;;;7.53;2.45;;;;;;;8.19;63.39;98496.66;10484138;28;20069;-64
2023/12/10 00:37:08;;;;;;;9.77;2.40;;;;;;;8.00;63.35;98512.72;10501610;28;20531;-64
2023/12/10 00:42:10;;;;;;;5.63;2.80;;;;;;;7.94;63.79;98520.13;10490313;28;20488;-64
2023/12/10 00:47:12;;;;;;;7.38;1.70;;;;;;;8.06;63.52;98537.47;10498895;28;20064;-64
2023/12/10 00:52:14;;;;;;;7.25;2.55;;;;;;;8.06;63.37;98547.09;10519038;28;20574;-64
2023/12/10 00:57:16;;;;;;;13.88;3.20;;;;;;;8.09;63.76;98560.72;10482792;28;20139;-64
2023/12/10 01:02:19;;;;;;;10.88;2.83;;;;;;;8.13;63.09;98575.22;10518567;28;20055;-64
2023/12/10 01:07:21;;;;;;;12.13;2.40;;;;;;;8.21;63.29;98572.06;10517780;28;20097;-64
2023/12/10 01:12:23;;;;;;;11.68;2.50;;;;;;;8.15;63.11;98577.69;10517593;28;20206;-64
2023/12/10 01:17:25;;;;;;;14.23;4.05;;;;;;;8.07;63.12;98590.41;10499616;28;20052;-64
2023/12/10 01:22:28;;;;;;;11.18;3.78;;;;;;;8.08;63.30;98595.50;10517285;28;20407;-63
2023/12/10 01:27:31;;;;;;;11.25;3.33;;;;;;;8.06;63.18;98604.38;10517798;28;21024;-64
2023/12/10 01:32:33;;;;;;;14.52;3.25;;;;;;;8.06;63.28;98606.97;10532989;28;20044;-64
2023/12/10 01:37:35;;;;;;;11.48;3.50;;;;;;;8.16;63.04;98629.66;10517830;28;20062;-64
2023/12/10 01:42:37;;;;;;;10.48;3.45;;;;;;;8.13;63.22;98631.66;10516530;28;20574;-64
2023/12/10 01:47:43;;;;;;;11.52;3.15;;;;;;;7.98;62.51;98626.56;10518142;28;20048;-64
2023/12/10 01:52:49;;;;;;;7.68;2.22;;;;;;;8.04;61.46;98646.94;10516862;28;20097;-64
2023/12/10 01:57:52;;;;;;;5.45;2.00;;;;;;;8.01;59.85;98662.81;10515782;28;20044;-64
2023/12/10 02:02:55;;;;;;;5.15;1.75;;;;;;;7.95;59.44;98680.63;10515747;28;20051;-64
2023/12/10 02:07:57;;;;;;;6.18;2.33;;;;;;;7.92;60.94;98679.03;10516155;28;20052;-64
2023/12/10 02:13:00;;;;;;;9.30;2.45;;;;;;;7.74;61.30;98690.72;10516148;28;20438;-63
2023/12/10 02:18:02;;;;;;;7.75;1.55;;;;;;;7.58;62.00;98681.44;10516710;28;20032;-64
2023/12/10 02:23:10;;;;;;;4.80;1.77;;;;;;;7.54;62.14;98693.81;10497980;28;20487;-64
2023/12/10 02:28:11;;;;;;;2.88;1.17;;;;;;;7.47;62.34;98695.16;10516331;28;20450;-63
2023/12/10 02:33:14;;;;;;;7.40;1.70;;;;;;;7.35;62.94;98685.56;10496564;28;20438;-64
2023/12/10 02:38:21;;;;;;;6.75;2.40;;;;;;;7.40;62.86;98695.69;10515859;28;20071;-64
2023/12/10 02:43:23;;;;;;;5.70;2.10;;;;;;;7.48;62.32;98707.25;10515849;28;20405;-64
2023/12/10 02:48:25;;;;;;;6.05;2.25;;;;;;;7.60;62.04;98709.03;10498206;28;20044;-64
2023/12/10 02:53:27;;;;;;;6.63;1.77;;;;;;;7.59;61.57;98714.34;10498321;28;20135;-63
2023/12/10 02:58:29;;;;;;;9.95;2.75;;;;;;;7.55;61.99;98712.88;10524241;28;20239;-63
2023/12/10 03:03:31;;;;;;;4.95;1.92;;;;;;;7.61;61.61;98715.06;10503619;28;20055;-63
2023/12/10 03:08:33;;;;;;;8.93;1.75;;;;;;;7.60;61.62;98732.44;10523568;28;20055;-63
2023/12/10 03:13:35;;;;;;;5.18;2.10;;;;;;;7.68;61.69;98730.16;10522955;28;20511;-64
2023/12/10 03:18:37;;;;;;;8.48;2.72;;;;;;;7.70;62.70;98733.50;10486887;28;20044;-64
2023/12/10 03:23:39;;;;;;;6.55;2.17;;;;;;;7.73;63.06;98745.47;10522630;28;20054;-64
2023/12/10 03:28:41;;;;;;;7.55;2.47;;;;;;;7.68;63.73;98757.94;10521804;28;20059;-64
2023/12/10 03:33:43;;;;;;;9.77;3.17;;;;;;;7.58;64.44;98762.94;10521386;28;20120;-63
2023/12/10 03:38:47;;;;;;;8.15;2.00;;;;;;;7.52;64.83;98775.50;10522403;28;20052;-63
2023/12/10 03:43:49;;;;;;;9.07;2.75;;;;;;;7.58;64.84;98773.34;10521634;28;20048;-63
2023/12/10 03:48:51;;;;;;;12.45;2.25;;;;;;;7.62;64.59;98767.00;10496282;28;20142;-63
2023/12/10 03:53:54;;;;;;;7.55;1.77;;;;;;;7.59;64.59;98777.59;10521319;28;20040;-64
2023/12/10 03:58:56;;;;;;;6.70;2.67;;;;;;;7.68;64.38;98784.81;10521369;28;20134;-64
2023/12/10 04:03:58;;;;;;;9.20;1.90;;;;;;;7.73;64.17;98790.53;10519928;28;20179;-64
2023/12/10 04:09:00;;;;;;;8.43;2.33;;;;;;;7.80;64.01;98797.00;10520101;28;20137;-64
2023/12/10 04:14:02;;;;;;;7.10;2.00;;;;;;;7.82;63.92;98802.09;10520986;28;20147;-64
2023/12/10 04:19:04;;;;;;;9.43;1.98;;;;;;;7.66;64.30;98824.88;10502321;28;20080;-64
2023/12/10 04:24:07;;;;;;;8.77;3.03;;;;;;;7.69;64.07;98819.47;10520071;28;20066;-63
2023/12/10 04:29:09;;;;;;;6.35;2.58;;;;;;;7.65;64.44;98818.81;10519879;28;20032;-63
2023/12/10 04:34:11;;;;;;;7.53;3.15;;;;;;;7.83;63.80;98835.03;10501823;28;20138;-64
2023/12/10 04:39:15;;;;;;;4.38;1.70;;;;;;;7.87;63.79;98833.88;10519697;28;20484;-63
2023/12/10 04:44:17;;;;;;;10.07;2.40;;;;;;;7.80;63.56;98823.03;10518745;28;20052;-63
2023/12/10 04:49:19;;;;;;;11.27;1.77;;;;;;;7.82;63.55;98817.72;10518781;28;20048;-64
2023/12/10 04:54:21;;;;;;;10.52;2.53;;;;;;;7.78;63.33;98832.72;10500920;28;20066;-62
2023/12/10 04:59:23;;;;;;;7.88;1.42;;;;;;;7.87;63.19;98826.06;10500907;28;20056;-63
2023/12/10 05:04:25;;;;;;;9.73;2.25;;;;;;;7.85;62.97;98836.56;10517946;28;20058;-63
2023/12/10 05:09:27;;;;;;;9.30;2.00;;;;;;;7.95;62.82;98832.44;10500585;28;20048;-63
2023/12/10 05:14:29;;;;;;;4.40;1.48;;;;;;;8.02;62.79;98833.69;10518271;28;20052;-63
2023/12/10 05:19:31;;;;;;;10.75;2.20;;;;;;;8.01;62.77;98833.81;10516708;28;20052;-63
2023/12/10 05:24:34;;;;;;;6.05;2.50;;;;;;;7.97;62.83;98838.38;10518036;28;20379;-64
2023/12/10 05:29:36;;;;;;;7.10;2.28;;;;;;;7.85;63.36;98844.38;10499305;28;20648;-63
2023/12/10 05:34:38;;;;;;;11.85;2.20;;;;;;;7.73;63.79;98855.59;10499530;28;20072;-64
2023/12/10 05:39:40;;;;;;;7.45;1.60;;;;;;;7.70;64.09;98850.59;10517725;28;20058;-63
2023/12/10 05:44:42;;;;;;;6.18;2.03;;;;;;;7.59;64.35;98863.47;10516813;28;20051;-63
2023/12/10 05:49:44;;;;;;;3.88;1.90;;;;;;;7.80;64.02;98866.44;10516771;28;20300;-64
2023/12/10 05:54:46;;;;;;;7.32;2.25;;;;;;;7.77;63.77;98872.66;10517028;28;20048;-63
2023/12/10 05:59:48;;;;;;;8.48;1.63;;;;;;;7.73;63.92;98873.00;10498633;28;20484;-63
2023/12/10 06:04:50;;;;;;;8.32;1.92;;;;;;;7.81;63.49;98875.94;10516203;28;20395;-64
2023/12/10 06:09:52;;;;;;;5.30;2.25;;;;;;;7.88;63.15;98875.44;10516461;28;20052;-64
2023/12/10 06:14:55;;;;;;;6.05;1.90;;;;;;;7.95;62.92;98894.94;10516477;28;20093;-64
2023/12/10 06:19:57;;;;;;;15.63;2.95;;;;;;;7.98;62.63;98905.13;10498226;28;20511;-64
2023/12/10 06:24:59;;;;;;;5.68;2.00;;;;;;;8.08;62.54;98912.34;10516174;28;20143;-64
2023/12/10 06:30:01;;;;;;;8.50;2.10;;;;;;;7.95;62.27;98926.16;10495040;28;20288;-64
2023/12/10 06:35:04;;;;;;;6.90;1.95;;;;;;;7.98;62.05;98938.97;10525194;28;20051;-63
2023/12/10 06:40:07;;;;;;;9.40;2.65;;;;;;;7.97;61.95;98954.69;10523938;28;20094;-64
2023/12/10 06:45:10;;;;;;;4.43;1.92;;;;;;;8.11;61.99;98959.88;10505848;28;20057;-65
2023/12/10 06:50:12;;;;;;;7.43;2.13;;;;;;;8.21;61.58;98963.56;10523848;28;20537;-64
2023/12/10 06:55:14;;;;;;;10.38;2.33;;;;;;;8.26;61.73;98981.50;10523508;28;20131;-63
2023/12/10 07:00:20;;;;;;;6.65;2.83;;;;;;;8.18;61.81;98979.38;10505111;28;20081;-64
2023/12/10 07:05:22;;;;;;;7.57;2.55;;;;;;;8.10;61.50;98992.06;10523391;28;20132;-62
2023/12/10 07:10:25;;;;;;;3.75;1.65;;;;;;;8.04;61.69;98995.84;10522521;28;20040;-64
2023/12/10 07:15:27;;;;;;;9.52;2.80;;;;;;;8.03;61.43;98996.81;10504268;28;20040;-63
2023/12/10 07:20:29;;;;;;;6.55;1.83;;;;;;;8.23;61.16;99007.72;10523143;28;20036;-65
2023/12/10 07:25:31;;;;;;;6.28;2.20;;;;;;;8.08;61.32;99019.13;10522442;28;20112;-63
2023/12/10 07:30:33;;;;;;;5.60;2.03;;;;;;;8.21;60.81;99009.59;10522537;28;20515;-63
2023/12/10 07:35:35;;;;;;;12.02;1.80;;;;;;;8.20;60.08;99026.97;10503169;28;20043;-63
2023/12/10 07:40:37;;;;;;;7.40;2.20;;;;;;;8.31;59.86;99031.50;10502947;28;20064;-64
2023/12/10 07:45:39;;;;;;;8.90;2.05;;;;;;;8.38;59.91;99035.41;10521776;28;20130;-64
2023/12/10 07:50:41;;;;;;;11.27;2.83;;;;;;;8.38;59.01;99027.59;10503682;28;20404;-64
2023/12/10 07:55:46;;;;;;;3.50;1.52;;;;;;;8.49;59.35;99032.91;10521038;28;20036;-64
2023/12/10 08:00:48;;;;;;;14.50;2.05;;;;;;;8.48;58.89;99049.50;10521505;28;20131;-64
2023/12/10 08:05:51;;;;;;;4.93;1.70;;;;;;;8.48;58.52;99054.72;10520220;28;20044;-64
2023/12/10 08:10:53;;;;;;;4.43;1.65;;;;;;;8.57;58.50;99056.69;10486357;28;20048;-63
2023/12/10 08:15:55;;;;;;;3.55;1.23;;;;;;;8.63;58.58;99054.53;10520186;28;20048;-64
2023/12/10 08:20:57;;;;;;;8.23;2.47;;;;;;;8.51;57.41;99070.97;10520338;28;20517;-64
2023/12/10 08:26:00;;;;;;;3.83;1.80;;;;;;;8.69;57.76;99076.75;10519209;28;20415;-64
2023/12/10 08:31:02;;;;;;;9.63;2.42;;;;;;;8.70;56.79;99065.41;10520274;28;20040;-65
2023/12/10 08:36:04;;;;;;;7.30;2.65;;;;;;;8.76;57.76;99091.91;10514949;28;20070;-64
2023/12/10 08:41:06;;;;;;;9.80;2.38;;;;;;;8.53;57.20;99109.94;10509627;28;20050;-64
2023/12/10 08:46:09;;;;;;;9.38;2.00;;;;;;;8.69;56.88;99115.84;10496842;28;20059;-64
2023/12/10 08:51:11;;;;;;;5.30;1.60;;;;;;;8.87;57.40;99124.25;10496727;28;20047;-65
2023/12/10 08:56:13;;;;;;;5.38;2.00;;;;;;;8.82;57.31;99145.41;10513191;28;20059;-64
2023/12/10 09:01:16;;;;;;;8.45;1.65;;;;;;;8.70;57.66;99154.88;10515843;28;20044;-64
2023/12/10 09:06:18;;;;;;;13.20;3.17;;;;;;;8.66;57.29;99157.75;10513035;28;20507;-64
2023/12/10 09:11:20;;;;;;;5.90;1.92;;;;;;;8.64;57.50;99144.84;10495702;28;20228;-64
2023/12/10 09:16:26;;;;;;;9.18;1.70;;;;;;;8.55;57.70;99170.63;10492844;28;20055;-67
2023/12/10 09:21:28;;;;;;;10.48;1.95;;;;;;;8.60;57.25;99165.97;10513001;28;20051;-67
2023/12/10 09:26:30;;;;;;;8.25;2.15;;;;;;;8.70;57.32;99183.53;10491213;28;20071;-67
2023/12/10 09:31:32;;;;;;;10.60;2.92;;;;;;;8.79;56.70;99169.91;10512535;28;20079;-67
2023/12/10 09:36:34;;;;;;;5.68;1.95;;;;;;;8.73;56.75;99188.53;10490136;28;20484;-67
2023/12/10 09:41:36;;;;;;;9.15;2.30;;;;;;;8.91;56.62;99188.31;10490135;28;20113;-67
2023/12/10 09:46:38;;;;;;;7.13;2.10;;;;;;;9.15;56.28;99203.22;10513395;28;20634;-66
2023/12/10 09:51:41;;;;;;;6.88;1.92;;;;;;;9.23;56.52;99200.09;10511935;28;20048;-67
2023/12/10 09:56:43;;;;;;;6.15;2.33;;;;;;;8.87;56.28;99208.53;10512390;28;20044;-67
2023/12/10 10:01:50;;;;;;;5.93;1.63;;;;;;;8.87;55.82;99218.13;10493785;28;20056;-67
2023/12/10 10:06:52;;;;;;;4.40;1.70;;;;;;;8.78;56.55;99209.97;10494408;28;20496;-67
2023/12/10 10:11:55;;;;;;;6.20;1.92;;;;;;;8.77;56.89;99212.69;10489178;28;20032;-67
2023/12/10 10:16:57;;;;;;;3.97;1.70;;;;;;;8.96;56.46;99197.50;10510788;28;20152;-66
2023/12/10 10:21:59;;;;;;;9.68;2.60;;;;;;;9.02;56.14;99197.09;10492093;28;20164;-66
2023/12/10 10:27:01;;;;;;;5.70;1.80;;;;;;;9.34;55.58;99188.00;10490181;28;20528;-66
2023/12/10 10:32:03;;;;;;;9.95;2.97;;;;;;;9.42;56.07;99203.97;10491667;28;20531;-67
2023/12/10 10:37:05;;;;;;;4.45;2.00;;;;;;;9.63;55.68;99194.72;10511547;28;20040;-66
2023/12/10 10:42:09;;;;;;;5.97;2.03;;;;;;;9.80;55.40;99187.56;10486513;28;20089;-67
2023/12/10 10:47:12;;;;;;;6.80;1.48;;;;;;;9.77;55.38;99193.81;10506548;28;20050;-67
2023/12/10 10:52:21;;;;;;;6.10;1.75;;;;;;;9.71;54.77;99191.63;10507562;28;20062;-67
2023/12/10 10:57:29;;;;;;;5.22;1.83;;;;;;;9.79;54.63;99189.31;10498922;28;20032;-66
2023/12/10 11:02:32;;;;;;;8.98;2.53;;;;;;;9.71;55.32;99198.63;10506274;28;20083;-66
2023/12/10 11:07:39;;;;;;;9.27;2.55;;;;;;;9.89;55.21;99203.41;10502794;28;20079;-66
2023/12/10 11:12:42;;;;;;;6.15;1.85;;;;;;;9.95;54.88;99189.13;10507951;28;20040;-66
2023/12/10 11:17:54;;;;;;;7.07;2.15;;;;;;;9.74;54.60;99175.75;10511623;28;20063;-67
2023/12/10 11:22:56;;;;;;;8.15;2.15;;;;;;;10.02;54.69;99169.47;10512353;28;20036;-66
2023/12/10 11:28:01;;;;;;;15.98;2.50;;;;;;;10.04;54.58;99181.47;10516388;28;20049;-66
2023/12/10 11:33:05;;;;;;;8.48;1.70;;;;;;;10.30;54.11;99171.81;10515555;28;20055;-66
2023/12/10 11:38:08;;;;;;;4.70;2.17;;;;;;;10.32;54.04;99170.75;10511807;28;20101;-66
2023/12/10 11:43:11;;;;;;;6.00;1.73;;;;;;;10.29;53.50;99163.16;10493857;28;20420;-66
2023/12/10 11:48:17;;;;;;;12.05;3.25;;;;;;;10.31;53.57;99155.19;10480500;28;20261;-66
2023/12/10 11:53:19;;;;;;;6.53;2.22;;;;;;;10.20;53.54;99169.00;10516075;28;20699;-65
2023/12/10 11:58:28;;;;;;;9.70;1.90;;;;;;;10.09;53.26;99179.41;10515176;28;20048;-65
2023/12/10 12:03:32;;;;;;;6.40;1.50;;;;;;;10.04;53.94;99194.53;10478559;28;20109;-66
2023/12/10 12:08:36;;;;;;;6.20;1.67;;;;;;;10.04;54.35;99214.59;10511586;28;20051;-65
2023/12/10 12:13:39;;;;;;;7.22;2.28;;;;;;;10.04;53.61;99196.31;10515925;28;20058;-67
2023/12/10 12:18:41;;;;;;;6.18;2.55;;;;;;;10.23;53.93;99207.16;10516033;28;20227;-67
2023/12/10 12:23:43;;;;;;;6.05;1.27;;;;;;;10.36;54.17;99203.56;10513962;28;20141;-66
2023/12/10 12:28:45;;;;;;;6.53;2.45;;;;;;;10.54;53.77;99200.63;10512438;28;20141;-66
2023/12/10 12:33:49;;;;;;;6.65;1.83;;;;;;;10.52;53.63;99196.31;10513153;28;20131;-66
2023/12/10 12:38:51;;;;;;;6.13;1.58;;;;;;;10.47;53.75;99193.22;10512927;28;20369;-67
2023/12/10 12:43:53;;;;;;;8.20;2.00;;;;;;;10.35;54.04;99207.16;10509188;28;20066;-67
2023/12/10 12:48:55;;;;;;;8.00;1.98;;;;;;;10.31;54.01;99203.09;10513090;28;20499;-67
2023/12/10 12:53:58;;;;;;;6.20;2.13;;;;;;;10.22;54.28;99208.09;10512541;28;20040;-65
2023/12/10 12:59:14;;;;;;;12.85;3.17;;;;;;;10.10;54.62;99204.56;10480765;28;20062;-67
2023/12/10 13:04:16;;;;;;;8.38;2.20;;;;;;;10.11;54.72;99194.97;10512828;28;20063;-67
2023/12/10 13:09:19;;;;;;;7.93;2.15;;;;;;;10.28;54.54;99197.22;10491336;28;20244;-66
2023/12/10 13:14:21;;;;;;;9.35;2.03;;;;;;;10.32;54.88;99196.91;10511294;28;20517;-66
2023/12/10 13:19:23;;;;;;;3.90;1.77;;;;;;;10.13;55.01;99183.47;10494213;28;20450;-67
2023/12/10 13:24:26;;;;;;;8.07;1.73;;;;;;;10.22;55.07;99171.50;10511421;28;20241;-66
2023/12/10 13:29:28;;;;;;;7.60;2.20;;;;;;;10.19;55.13;99159.53;10525964;28;20945;-66
2023/12/10 13:34:30;;;;;;;7.70;1.80;;;;;;;10.08;55.36;99174.25;10509930;28;20054;-66
2023/12/10 13:39:32;;;;;;;8.15;2.60;;;;;;;9.98;55.74;99179.28;10499378;28;20040;-66
2023/12/10 13:44:35;;;;;;;9.80;2.22;;;;;;;9.91;55.62;99161.53;10485390;28;20791;-67
2023/12/10 13:49:37;;;;;;;6.35;2.08;;;;;;;10.00;55.50;99176.56;10525426;28;20044;-67
2023/12/10 13:54:39;;;;;;;10.93;2.70;;;;;;;10.08;55.71;99176.88;10507972;28;20113;-66
2023/12/10 13:59:41;;;;;;;7.55;2.03;;;;;;;10.01;55.73;99159.97;10509910;28;20044;-66
2023/12/10 14:04:43;;;;;;;11.23;2.47;;;;;;;10.06;55.77;99170.91;10511695;28;20056;-66
2023/12/10 14:09:45;;;;;;;7.40;2.05;;;;;;;9.82;55.42;99162.16;10485384;28;20380;-67
2023/12/10 14:14:47;;;;;;;9.43;2.35;;;;;;;9.84;55.75;99162.91;10491046;28;20074;-68
2023/12/10 14:19:49;;;;;;;3.95;1.88;;;;;;;9.83;55.52;99158.63;10526755;28;20036;-67
2023/12/10 14:24:51;;;;;;;10.27;2.17;;;;;;;9.71;55.54;99151.63;10508990;28;20139;-68
2023/12/10 14:29:54;;;;;;;5.47;1.80;;;;;;;9.80;55.83;99151.84;10524259;28;20076;-67
2023/12/10 14:34:56;;;;;;;6.78;1.98;;;;;;;9.90;55.75;99146.81;10491423;28;20054;-67
2023/12/10 14:39:58;;;;;;;7.00;1.83;;;;;;;9.65;56.04;99143.25;10509905;28;20140;-67
2023/12/10 14:45:00;;;;;;;5.07;1.40;;;;;;;9.66;56.26;99151.94;10506535;28;20075;-67
2023/12/10 14:50:06;;;;;;;8.85;2.10;;;;;;;9.61;56.38;99143.53;10509391;28;20118;-67
2023/12/10 14:55:08;;;;;;;8.73;1.42;;;;;;;9.64;56.76;99138.97;10516381;28;20043;-67
2023/12/10 15:00:11;;;;;;;3.15;1.48;;;;;;;9.64;56.91;99146.81;10517315;28;20048;-67
2023/12/10 15:05:13;;;;;;;5.70;1.77;;;;;;;9.62;57.08;99133.03;10516678;28;20157;-67
2023/12/10 15:10:15;;;;;;;13.32;2.60;;;;;;;9.64;57.00;99144.19;10517405;28;20115;-67
2023/12/10 15:15:19;;;;;;;6.82;2.22;;;;;;;9.59;57.12;99140.22;10515429;28;20059;-67
2023/12/10 15:20:21;;;;;;;4.90;1.30;;;;;;;9.58;57.11;99126.31;10531711;27;20499;-68
2023/12/10 15:25:26;;;;;;;8.90;2.10;;;;;;;9.44;57.34;99118.59;10513328;28;20269;-66
2023/12/10 15:30:28;;;;;;;6.25;2.00;;;;;;;9.44;57.50;99102.94;10515861;28;20124;-67
2023/12/10 15:35:36;;;;;;;4.47;2.15;;;;;;;9.48;57.29;99085.31;10516287;28;20040;-67
2023/12/10 15:40:38;;;;;;;7.45;2.22;;;;;;;9.33;57.53;99094.16;10498792;28;20056;-67
2023/12/10 15:45:41;;;;;;;4.20;1.98;;;;;;;9.25;57.64;99094.69;10512628;28;20044;-67
2023/12/10 15:50:43;;;;;;;8.50;1.83;;;;;;;9.34;57.63;99095.84;10513499;28;20178;-67
2023/12/10 15:55:46;;;;;;;4.78;1.55;;;;;;;9.39;57.63;99102.41;10463237;28;20295;-68
2023/12/10 16:00:51;;;;;;;6.82;2.15;;;;;;;9.38;57.64;99100.75;10530880;28;20410;-67
2023/12/10 16:05:53;;;;;;;7.85;2.30;;;;;;;9.39;57.31;99099.81;10514540;28;20105;-67
2023/12/10 16:10:56;;;;;;;11.60;2.30;;;;;;;9.40;57.20;99058.91;10514327;28;20054;-68
2023/12/10 16:15:58;;;;;;;14.57;2.47;;;;;;;9.53;56.94;99062.31;10514078;28;20052;-67
2023/12/10 16:21:00;;;;;;;5.55;2.55;;;;;;;9.41;56.97;99058.78;10496669;28;20442;-67
2023/12/10 16:26:06;;;;;;;7.75;1.67;;;;;;;9.46;57.09;99061.09;10514596;28;20453;-67
2023/12/10 16:31:08;;;;;;;3.83;1.77;;;;;;;9.46;56.92;99046.25;10495472;28;20036;-67
2023/12/10 16:36:10;;;;;;;7.35;1.88;;;;;;;9.35;56.76;99040.94;10514242;28;20048;-67
2023/12/10 16:41:12;;;;;;;6.97;1.48;;;;;;;9.35;56.90;99016.63;10508429;28;20181;-67
2023/12/10 16:46:14;;;;;;;4.95;1.48;;;;;;;9.27;56.88;98993.69;10510412;28;20070;-67
2023/12/10 16:51:16;;;;;;;6.10;2.08;;;;;;;9.30;56.77;98982.19;10512185;28;20440;-67
2023/12/10 16:56:18;;;;;;;3.38;1.48;;;;;;;9.24;56.96;98987.84;10513049;28;20144;-67
2023/12/10 17:01:20;;;;;;;5.18;1.23;;;;;;;9.25;56.76;98989.50;10512328;28;20047;-67
2023/12/10 17:06:25;;;;;;;10.80;3.05;;;;;;;9.36;56.85;98995.63;10510886;28;20054;-68
2023/12/10 17:11:28;;;;;;;6.78;2.03;;;;;;;9.33;56.43;98989.78;10477409;28;20052;-66
2023/12/10 17:16:30;;;;;;;8.88;2.28;;;;;;;9.30;56.95;98972.56;10488600;28;20127;-68
2023/12/10 17:21:33;;;;;;;7.95;2.33;;;;;;;9.34;56.76;98958.38;10511306;28;20075;-67
2023/12/10 17:26:36;;;;;;;10.10;2.15;;;;;;;9.34;56.77;98952.34;10492260;28;20507;-68
2023/12/10 17:31:38;;;;;;;10.95;2.13;;;;;;;9.39;56.34;98927.59;10510451;28;20044;-68
2023/12/10 17:36:40;;;;;;;6.50;1.50;;;;;;;9.53;55.97;98909.16;10491754;28;20124;-68
2023/12/10 17:41:43;;;;;;;4.88;1.38;;;;;;;9.49;55.91;98883.38;10511421;28;20105;-67
2023/12/10 17:46:47;;;;;;;10.50;1.75;;;;;;;9.41;55.85;98860.47;10493774;28;20052;-68
2023/12/10 17:51:51;;;;;;;7.32;2.00;;;;;;;9.32;56.89;98855.06;10508940;28;20404;-68
2023/12/10 17:56:53;;;;;;;8.90;3.05;;;;;;;9.36;57.20;98823.41;10493855;28;20048;-67
2023/12/10 18:01:56;;;;;;;5.32;2.03;;;;;;;9.16;57.27;98802.31;10492113;28;20084;-67
2023/12/10 18:06:58;;;;;;;5.30;1.80;;;;;;;9.19;57.44;98779.47;10527079;28;20063;-68
2023/12/10 18:12:00;;;;;;;3.35;1.55;;;;;;;9.15;57.82;98764.13;10509942;28;20046;-67
2023/12/10 18:17:02;;;;;;;5.80;1.92;;;;;;;9.25;57.67;98762.53;10508452;28;20403;-67
2023/12/10 18:22:06;;;;;;;3.00;2.25;;;;;;;9.29;57.60;98759.59;10506239;28;20486;-68
2023/12/10 18:27:08;;;;;;;3.80;1.40;;;;;;;9.34;57.40;98749.63;10516199;28;20051;-68
2023/12/10 18:32:10;;;;;;;5.40;1.98;;;;;;;9.27;57.30;98742.38;10499270;28;20504;-67
2023/12/10 18:37:13;;;;;;;4.65;1.45;;;;;;;9.44;57.34;98731.53;10500652;28;20506;-67
2023/12/10 18:42:15;;;;;;;5.40;1.92;;;;;;;9.46;57.48;98722.63;10517691;28;20047;-67
2023/12/10 18:47:17;;;;;;;5.93;1.33;;;;;;;9.46;57.48;98701.75;10517997;28;20058;-67
2023/12/10 18:52:19;;;;;;;4.07;1.85;;;;;;;9.42;58.23;98687.28;10514135;28;20507;-67
2023/12/10 18:57:22;;;;;;;5.88;1.95;;;;;;;9.29;58.87;98683.09;10496796;28;20080;-67
2023/12/10 19:02:24;;;;;;;4.65;1.45;;;;;;;9.22;59.42;98676.69;10517531;28;20060;-67
2023/12/10 19:07:26;;;;;;;6.47;2.28;;;;;;;9.10;60.47;98678.41;10500552;28;20044;-68
2023/12/10 19:12:29;;;;;;;4.70;1.23;;;;;;;9.01;60.34;98678.25;10532371;27;20129;-67
2023/12/10 19:17:32;;;;;;;7.97;1.40;;;;;;;8.92;60.81;98671.91;10517503;28;20114;-68
2023/12/10 19:22:35;;;;;;;14.45;3.53;;;;;;;8.95;61.01;98657.84;10512082;28;20047;-68
2023/12/10 19:27:37;;;;;;;7.70;1.98;;;;;;;8.94;61.92;98657.00;10509988;28;20495;-67
2023/12/10 19:32:39;;;;;;;4.88;1.85;;;;;;;8.99;61.23;98644.47;10517255;28;20063;-67
2023/12/10 19:37:41;;;;;;;7.47;2.10;;;;;;;9.05;61.27;98632.75;10526643;28;20051;-68
2023/12/10 19:42:43;;;;;;;8.48;2.03;;;;;;;9.02;61.55;98623.38;10495077;28;20154;-68
2023/12/10 19:47:50;;;;;;;3.45;1.35;;;;;;;8.95;62.12;98595.25;10513523;28;20527;-68
2023/12/10 19:52:53;;;;;;;4.97;1.73;;;;;;;8.85;62.50;98580.28;10525159;28;20101;-68
2023/12/10 19:57:56;;;;;;;4.68;1.50;;;;;;;8.98;61.81;98585.41;10514047;28;20055;-68
2023/12/10 20:02:58;;;;;;;6.63;2.08;;;;;;;9.02;61.94;98576.41;10464467;27;20049;-67
2023/12/10 20:08:00;;;;;;;8.60;2.55;;;;;;;9.05;61.90;98576.22;10430618;28;20052;-68
2023/12/10 20:13:02;;;;;;;4.28;1.40;;;;;;;9.04;62.10;98561.50;10430788;28;20132;-67
2023/12/10 20:18:05;;;;;;;5.68;1.70;;;;;;;8.96;62.47;98595.13;10430016;28;20144;-69
2023/12/10 20:23:07;;;;;;;6.03;2.22;;;;;;;9.02;62.35;98619.91;10429473;28;20288;-67
2023/12/10 20:28:11;;;;;;;6.20;2.08;;;;;;;9.03;62.50;98572.88;10423547;28;20051;-67
2023/12/10 20:33:13;;;;;;;5.38;2.03;;;;;;;9.12;62.35;98581.78;10427540;28;20041;-67
2023/12/10 20:38:15;;;;;;;3.03;1.15;;;;;;;9.07;62.58;98544.78;10431128;28;20152;-66
2023/12/10 20:43:17;;;;;;;5.97;1.35;;;;;;;9.07;62.62;98560.44;10431599;28;20331;-66
2023/12/10 20:48:19;;;;;;;3.83;1.52;;;;;;;9.13;62.42;98571.25;10428730;28;20790;-66
2023/12/10 20:53:21;;;;;;;2.78;1.05;;;;;;;9.05;62.99;98576.22;10423990;28;20053;-67
2023/12/10 20:58:23;;;;;;;5.25;1.45;;;;;;;9.24;62.49;98560.00;10433381;28;20133;-66
2023/12/10 21:03:27;;;;;;;2.22;0.88;;;;;;;9.28;62.56;98561.44;10495965;28;20263;-67
2023/12/10 21:08:30;;;;;;;1.65;0.85;;;;;;;9.24;62.81;98560.00;10509554;28;20059;-67
2023/12/10 21:13:33;;;;;;;1.95;1.15;;;;;;;9.43;62.46;98555.03;10514495;28;20500;-67
2023/12/10 21:18:37;;;;;;;3.63;1.13;;;;;;;9.47;62.32;98557.28;10512422;28;20335;-66
2023/12/10 21:23:40;;;;;;;5.15;0.70;;;;;;;9.50;62.43;98543.19;10513535;28;20048;-66
2023/12/10 21:28:42;;;;;;;2.00;1.02;;;;;;;9.46;62.79;98549.59;10513122;28;20476;-66
2023/12/10 21:33:45;;;;;;;3.47;0.93;;;;;;;9.48;62.91;98564.16;10515127;28;20044;-66
2023/12/10 21:38:47;;;;;;;0.57;0.47;;;;;;;9.54;62.91;98557.66;10492566;28;20048;-66
2023/12/10 21:43:49;;;;;;;3.15;1.00;;;;;;;9.59;62.87;98555.50;10479541;28;20107;-66
2023/12/10 21:48:51;;;;;;;0.75;0.75;;;;;;;9.58;63.10;98564.31;10513168;28;20059;-66
2023/12/10 21:53:54;;;;;;;0.60;0.50;;;;;;;9.68;62.59;98549.63;10513097;28;20294;-66
2023/12/10 21:58:56;;;;;;;3.33;0.70;;;;;;;9.57;62.85;98560.00;10513167;28;20524;-66
2023/12/10 22:03:58;;;;;;;1.05;0.50;;;;;;;9.55;62.70;98551.47;10514642;28;20040;-65
2023/12/10 22:09:01;;;;;;;1.27;0.80;;;;;;;9.46;63.03;98565.25;10514412;28;20101;-66
2023/12/10 22:14:03;;;;;;;0.88;0.57;;;;;;;9.48;63.16;98565.97;10513379;28;20504;-66
2023/12/10 22:19:05;;;;;;;1.05;0.50;;;;;;;9.58;62.91;98575.53;10496985;28;20060;-66
2023/12/10 22:24:07;;;;;;;0.60;0.60;;;;;;;9.54;63.13;98583.75;10512728;28;20054;-66
2023/12/10 22:29:09;;;;;;;2.17;0.75;;;;;;;9.62;63.09;98576.16;10513647;28;20055;-66
2023/12/10 22:34:11;;;;;;;0.93;0.57;;;;;;;9.70;62.93;98581.66;10479702;28;20040;-66
2023/12/10 22:39:13;;;;;;;1.08;0.40;;;;;;;9.70;62.93;98573.00;10480908;28;20044;-66
2023/12/10 22:44:15;;;;;;;1.25;0.57;;;;;;;9.61;63.03;98577.94;10495221;28;20113;-66
2023/12/10 22:49:17;;;;;;;0.75;0.50;;;;;;;9.38;63.96;98576.25;10493848;28;20508;-66
2023/12/10 22:54:19;;;;;;;1.00;0.60;;;;;;;9.31;64.05;98564.63;10512022;28;20524;-66
2023/12/10 22:59:21;;;;;;;0.93;0.43;;;;;;;9.37;63.83;98566.78;10509632;28;20067;-66
2023/12/10 23:04:24;;;;;;;1.52;0.35;;;;;;;9.36;63.57;98567.72;10504251;28;21066;-66
2023/12/10 23:09:26;;;;;;;0.75;0.40;;;;;;;9.33;63.74;98556.69;10509772;28;20040;-66
2023/12/10 23:14:28;;;;;;;0.60;0.40;;;;;;;9.21;64.12;98568.88;10520249;28;20040;-66
2023/12/10 23:19:30;;;;;;;0.40;0.30;;;;;;;9.16;63.99;98563.19;10507650;28;20040;-65
2023/12/10 23:24:32;;;;;;;0.30;0.30;;;;;;;9.11;64.25;98554.88;10518299;28;20040;-65
2023/12/10 23:29:34;;;;;;;0.65;0.35;;;;;;;9.10;64.22;98566.25;10518646;28;20044;-66
2023/12/10 23:34:36;;;;;;;0.70;0.50;;;;;;;9.03;64.72;98566.84;10497740;28;20496;-65
2023/12/10 23:39:44;;;;;;;0.52;0.43;;;;;;;9.06;64.82;98575.25;10516885;28;20051;-66